Time;durP1;ratioP1;P1;durP2;ratioP2;P2;SDS_P1;SDS_P2;PMS_P1;PMS_P2;Temp;Humidity;BMP_temperature;BMP_pressure;BME280_temperature;BME280_humidity;BME280_pressure;Samples;Min_cycle;Max_cycle;Signal;HPM_P1;HPM_P2
2022/05/22 00:01:57;;;;;;;;;;;23.00;94.30;;;;;;4975149;28;19914;-86
2022/05/22 00:04:23;;;;;;;;;;;23.00;94.30;;;;;;4975138;28;20259;-85
2022/05/22 00:06:48;;;;;;;;;;;22.90;94.20;;;;;;4975078;28;19910;-85
2022/05/22 00:09:14;;;;;;;;;;;22.90;94.60;;;;;;4974980;28;20346;-85
2022/05/22 00:11:40;;;;;;;;;;;22.90;94.80;;;;;;4975138;28;19917;-85
2022/05/22 00:14:06;;;;;;;;;;;22.90;94.80;;;;;;4975219;28;20354;-86
2022/05/22 00:16:37;;;;;;;;;;;22.90;95.00;;;;;;4974968;28;20076;-85
2022/05/22 00:19:35;;;;;;;;;;;22.80;95.00;;;;;;4975147;28;19922;-85
2022/05/22 00:22:01;;;;;;;;;;;22.80;95.20;;;;;;4936442;28;20290;-85
2022/05/22 00:24:29;;;;;;;;;;;22.80;95.30;;;;;;4975017;28;19914;-85
2022/05/22 00:26:55;;;;;;;;;;;22.70;95.20;;;;;;4974782;28;19917;-86
2022/05/22 00:29:21;;;;;;;;;;;22.70;95.30;;;;;;4974832;28;19910;-85
2022/05/22 00:31:46;;;;;;;;;;;22.60;95.50;;;;;;4974712;28;20290;-86
2022/05/22 00:34:12;;;;;;;;;;;22.60;95.50;;;;;;4974715;28;20025;-85
2022/05/22 00:36:38;;;;;;;;;;;22.60;95.90;;;;;;4957438;28;19973;-86
2022/05/22 00:39:04;;;;;;;;;;;22.50;95.80;;;;;;4974695;28;19918;-85
2022/05/22 00:41:30;;;;;;;;;;;22.50;95.90;;;;;;4974994;28;19926;-86
2022/05/22 00:43:57;;;;;;;;;;;22.50;96.10;;;;;;4974654;28;19910;-86
2022/05/22 00:46:23;;;;;;;;;;;22.40;96.10;;;;;;4974689;28;21058;-86
2022/05/22 00:48:50;;;;;;;;;;;22.40;96.40;;;;;;4974550;28;20008;-85
2022/05/22 00:51:16;;;;;;;;;;;22.30;96.10;;;;;;4975067;28;19964;-85
2022/05/22 00:53:42;;;;;;;;;;;22.30;96.50;;;;;;4978402;28;19914;-86
2022/05/22 00:56:12;;;;;;;;;;;22.20;96.30;;;;;;4978408;28;19911;-85
2022/05/22 00:58:38;;;;;;;;;;;22.20;96.20;;;;;;4978263;28;19922;-86
2022/05/22 01:01:04;;;;;;;;;;;22.20;96.70;;;;;;4977090;28;19910;-85
2022/05/22 01:03:31;;;;;;;;;;;22.20;96.40;;;;;;4978417;28;19910;-85
2022/05/22 01:06:05;;;;;;;;;;;22.20;96.80;;;;;;4978248;28;19989;-85
2022/05/22 01:08:32;;;;;;;;;;;22.20;96.60;;;;;;4978762;28;20262;-85
2022/05/22 01:11:00;;;;;;;;;;;22.20;96.70;;;;;;4978144;28;19917;-86
2022/05/22 01:13:29;;;;;;;;;;;22.20;96.80;;;;;;4976662;28;19910;-86
2022/05/22 01:15:55;;;;;;;;;;;22.20;96.70;;;;;;4978308;28;19910;-86
2022/05/22 01:18:20;;;;;;;;;;;22.10;96.90;;;;;;4977903;28;19918;-86
2022/05/22 01:20:47;;;;;;;;;;;22.10;97.00;;;;;;4976651;28;20437;-86
2022/05/22 01:23:13;;;;;;;;;;;22.00;97.00;;;;;;4977918;28;19914;-85
2022/05/22 01:25:38;;;;;;;;;;;22.00;97.30;;;;;;4977817;28;19957;-85
2022/05/22 01:28:04;;;;;;;;;;;22.00;97.00;;;;;;4977856;28;19918;-85
2022/05/22 01:30:29;;;;;;;;;;;22.00;97.20;;;;;;4976222;28;19910;-86
2022/05/22 01:32:55;;;;;;;;;;;22.00;97.20;;;;;;4977521;28;19910;-85
2022/05/22 01:35:24;;;;;;;;;;;21.90;96.90;;;;;;4976271;28;19910;-85
2022/05/22 01:37:51;;;;;;;;;;;21.90;97.20;;;;;;4977461;28;19911;-85
2022/05/22 01:40:17;;;;;;;;;;;21.90;97.20;;;;;;4977590;28;19922;-86
2022/05/22 01:42:43;;;;;;;;;;;21.90;97.60;;;;;;4977487;28;19914;-86
2022/05/22 01:45:10;;;;;;;;;;;21.90;97.20;;;;;;4977612;28;19910;-85
2022/05/22 01:47:37;;;;;;;;;;;21.90;97.20;;;;;;4977579;28;20354;-86
2022/05/22 01:50:04;;;;;;;;;;;21.90;97.20;;;;;;4976992;28;19910;-85
2022/05/22 01:52:29;;;;;;;;;;;21.90;97.10;;;;;;4977099;28;19917;-86
2022/05/22 01:54:55;;;;;;;;;;;21.90;97.00;;;;;;4977258;28;19910;-85
2022/05/22 01:57:20;;;;;;;;;;;21.80;96.70;;;;;;4959970;28;19954;-85
2022/05/22 01:59:46;;;;;;;;;;;21.80;96.60;;;;;;4977225;28;20374;-86
2022/05/22 02:02:11;;;;;;;;;;;21.80;97.30;;;;;;4976759;28;19910;-86
2022/05/22 02:04:37;;;;;;;;;;;21.80;96.90;;;;;;4977137;28;20398;-85
2022/05/22 02:09:47;;;;;;;;;;;21.80;97.00;;;;;;4976891;28;19916;-86
2022/05/22 02:12:12;;;;;;;;;;;21.80;96.80;;;;;;4976965;28;19914;-85
2022/05/22 02:14:38;;;;;;;;;;;21.80;96.80;;;;;;4977110;28;19917;-86
2022/05/22 02:17:04;;;;;;;;;;;21.80;97.20;;;;;;4975552;28;19910;-86
2022/05/22 02:19:29;;;;;;;;;;;21.90;97.00;;;;;;4976782;28;19919;-86
2022/05/22 02:21:55;;;;;;;;;;;21.90;96.70;;;;;;4959491;28;19941;-85
2022/05/22 02:24:20;;;;;;;;;;;21.90;96.70;;;;;;4959562;28;19918;-86
2022/05/22 02:26:46;;;;;;;;;;;21.90;96.80;;;;;;4959333;28;19910;-85
2022/05/22 02:29:11;;;;;;;;;;;21.90;96.80;;;;;;4976643;28;19916;-85
2022/05/22 02:31:37;;;;;;;;;;;21.90;96.70;;;;;;4976772;28;19917;-86
2022/05/22 02:34:03;;;;;;;;;;;21.90;96.90;;;;;;4976549;28;19911;-86
2022/05/22 02:36:28;;;;;;;;;;;21.90;96.80;;;;;;4976549;28;19910;-86
2022/05/22 02:38:54;;;;;;;;;;;21.90;96.80;;;;;;4976426;28;19953;-85
2022/05/22 02:41:20;;;;;;;;;;;21.90;96.80;;;;;;4976351;28;20004;-85
2022/05/22 02:43:46;;;;;;;;;;;21.90;97.00;;;;;;4976354;28;19917;-85
2022/05/22 02:46:12;;;;;;;;;;;21.90;96.90;;;;;;4976424;28;19910;-86
2022/05/22 02:48:38;;;;;;;;;;;21.90;96.90;;;;;;4991205;28;19917;-86
2022/05/22 02:51:04;;;;;;;;;;;21.80;96.90;;;;;;4958716;28;19910;-85
2022/05/22 02:53:29;;;;;;;;;;;21.80;97.20;;;;;;4976169;28;20319;-86
2022/05/22 02:56:06;;;;;;;;;;;21.80;96.90;;;;;;4976221;28;20002;-86
2022/05/22 02:58:31;;;;;;;;;;;21.90;97.20;;;;;;4976037;28;19924;-85
2022/05/22 03:00:57;;;;;;;;;;;21.80;97.30;;;;;;4976206;28;20273;-86
2022/05/22 03:03:22;;;;;;;;;;;21.80;97.20;;;;;;4976065;28;19977;-85
2022/05/22 03:08:32;;;;;;;;;;;21.60;97.90;;;;;;4976210;28;20019;-86
2022/05/22 03:11:02;;;;;;;;;;;21.50;97.80;;;;;;4975804;28;19910;-85
2022/05/22 03:13:27;;;;;;;;;;;21.60;97.60;;;;;;4975422;28;19914;-86
2022/05/22 03:15:53;;;;;;;;;;;21.50;97.90;;;;;;4975982;28;20396;-86
2022/05/22 03:18:18;;;;;;;;;;;21.50;98.50;;;;;;4975742;28;20425;-86
2022/05/22 03:20:44;;;;;;;;;;;21.40;99.30;;;;;;4958344;28;20018;-86
2022/05/22 03:23:09;;;;;;;;;;;21.30;99.80;;;;;;4976033;28;19917;-86
2022/05/22 03:25:35;;;;;;;;;;;21.20;99.90;;;;;;4975765;28;19917;-85
2022/05/22 03:28:00;;;;;;;;;;;21.30;99.90;;;;;;4974286;28;19910;-85
2022/05/22 03:30:26;;;;;;;;;;;21.30;99.90;;;;;;4975610;28;19910;-85
2022/05/22 03:32:52;;;;;;;;;;;21.20;99.90;;;;;;4975593;28;19910;-86
2022/05/22 03:35:18;;;;;;;;;;;21.20;99.90;;;;;;4975441;28;20275;-86
2022/05/22 03:37:44;;;;;;;;;;;21.20;99.90;;;;;;4974027;28;19922;-86
2022/05/22 03:40:10;;;;;;;;;;;21.30;99.90;;;;;;4975205;28;20386;-86
2022/05/22 03:42:36;;;;;;;;;;;21.40;99.90;;;;;;4975439;28;19989;-85
2022/05/22 03:45:01;;;;;;;;;;;21.40;99.90;;;;;;4975527;28;19914;-85
2022/05/22 03:47:27;;;;;;;;;;;21.40;99.90;;;;;;4975055;28;19957;-86
2022/05/22 03:49:52;;;;;;;;;;;21.30;99.90;;;;;;4975658;28;20397;-86
2022/05/22 03:52:18;;;;;;;;;;;21.30;99.90;;;;;;4975090;28;19917;-85
2022/05/22 03:54:43;;;;;;;;;;;21.30;99.90;;;;;;4957707;28;19910;-86
2022/05/22 03:57:09;;;;;;;;;;;21.20;99.90;;;;;;4975072;28;19914;-86
2022/05/22 03:59:37;;;;;;;;;;;21.20;99.90;;;;;;4957667;28;20298;-85
2022/05/22 04:02:03;;;;;;;;;;;21.20;99.90;;;;;;4975188;28;19933;-86
2022/05/22 04:04:28;;;;;;;;;;;21.20;99.90;;;;;;4975225;28;20286;-85
2022/05/22 04:06:54;;;;;;;;;;;21.20;99.20;;;;;;4975309;28;20001;-85
2022/05/22 04:09:20;;;;;;;;;;;21.20;99.00;;;;;;4957744;28;20052;-85
2022/05/22 04:11:45;;;;;;;;;;;21.20;98.90;;;;;;4975095;28;20425;-85
2022/05/22 04:14:11;;;;;;;;;;;21.30;98.80;;;;;;4974962;28;19917;-85
2022/05/22 04:16:36;;;;;;;;;;;21.20;98.40;;;;;;4975025;28;19912;-85
2022/05/22 04:19:02;;;;;;;;;;;21.30;98.50;;;;;;4974809;28;19922;-86
2022/05/22 04:21:28;;;;;;;;;;;21.30;98.70;;;;;;4974849;28;19910;-86
2022/05/22 04:26:37;;;;;;;;;;;21.30;98.50;;;;;;4979745;28;19933;-85
2022/05/22 04:29:03;;;;;;;;;;;21.30;98.40;;;;;;4981463;28;20366;-86
2022/05/22 04:31:29;;;;;;;;;;;21.30;98.70;;;;;;4981613;28;19910;-85
2022/05/22 04:33:54;;;;;;;;;;;21.20;98.70;;;;;;4981431;28;19917;-85
2022/05/22 04:36:20;;;;;;;;;;;21.20;98.60;;;;;;4981012;28;20312;-85
2022/05/22 04:38:46;;;;;;;;;;;21.20;98.70;;;;;;4981439;28;19973;-85
2022/05/22 04:41:11;;;;;;;;;;;21.20;98.40;;;;;;4963544;28;19997;-85
2022/05/22 04:43:37;;;;;;;;;;;21.30;98.30;;;;;;4981389;28;19910;-85
2022/05/22 04:46:05;;;;;;;;;;;21.30;98.50;;;;;;4980013;28;19914;-85
2022/05/22 04:48:30;;;;;;;;;;;21.30;98.50;;;;;;4963680;28;20358;-85
2022/05/22 04:50:56;;;;;;;;;;;21.30;98.50;;;;;;4981185;28;19917;-85
2022/05/22 04:53:23;;;;;;;;;;;21.30;98.40;;;;;;4979539;28;19910;-85
2022/05/22 04:55:49;;;;;;;;;;;21.40;98.20;;;;;;4980863;28;19914;-85
2022/05/22 04:58:16;;;;;;;;;;;21.40;97.90;;;;;;4980799;28;19914;-85
2022/05/22 05:00:42;;;;;;;;;;;21.30;97.90;;;;;;4980923;28;20436;-85
2022/05/22 05:03:07;;;;;;;;;;;21.40;98.50;;;;;;4981077;28;19934;-85
2022/05/22 05:05:33;;;;;;;;;;;21.40;98.70;;;;;;4980816;28;19914;-86
2022/05/22 05:07:59;;;;;;;;;;;21.40;99.90;;;;;;4981209;28;20370;-85
2022/05/22 05:10:24;;;;;;;;;;;21.20;99.90;;;;;;4981040;28;20294;-86
2022/05/22 05:12:50;;;;;;;;;;;21.00;99.90;;;;;;4980937;28;20012;-87
2022/05/22 05:15:17;;;;;;;;;;;20.70;99.90;;;;;;4963398;28;19910;-86
2022/05/22 05:17:44;;;;;;;;;;;20.50;99.90;;;;;;4980792;28;19961;-86
2022/05/22 05:20:11;;;;;;;;;;;20.20;99.90;;;;;;4981322;28;20317;-86
2022/05/22 05:22:37;;;;;;;;;;;20.10;99.90;;;;;;4981238;28;20004;-86
2022/05/22 05:25:03;;;;;;;;;;;20.00;99.90;;;;;;4982028;28;19917;-86
2022/05/22 05:27:29;;;;;;;;;;;20.00;99.90;;;;;;4981061;28;19956;-86
2022/05/22 05:29:54;;;;;;;;;;;19.90;99.90;;;;;;4990253;28;19970;-86
2022/05/22 05:32:21;;;;;;;;;;;19.80;99.90;;;;;;4985378;28;19913;-86
2022/05/22 05:34:46;;;;;;;;;;;19.80;99.90;;;;;;4982903;28;20004;-86
2022/05/22 05:37:12;;;;;;;;;;;19.90;99.90;;;;;;4978186;28;19914;-86
2022/05/22 05:39:37;;;;;;;;;;;20.00;99.90;;;;;;4977212;28;19926;-86
2022/05/22 05:42:03;;;;;;;;;;;20.10;99.90;;;;;;4977652;28;19910;-86
2022/05/22 05:44:29;;;;;;;;;;;20.20;99.90;;;;;;4977760;28;19910;-86
2022/05/22 05:46:54;;;;;;;;;;;20.30;99.90;;;;;;4977853;28;20009;-85
2022/05/22 05:49:20;;;;;;;;;;;20.30;99.90;;;;;;4977573;28;19917;-86
2022/05/22 05:51:45;;;;;;;;;;;20.40;99.90;;;;;;4959952;28;19965;-86
2022/05/22 05:54:11;;;;;;;;;;;20.40;99.90;;;;;;4977236;28;19910;-86
2022/05/22 05:56:38;;;;;;;;;;;20.40;99.90;;;;;;4975921;28;19957;-86
2022/05/22 05:59:04;;;;;;;;;;;20.50;99.90;;;;;;4977306;28;19918;-86
2022/05/22 06:01:29;;;;;;;;;;;20.50;99.90;;;;;;4977439;28;19910;-86
2022/05/22 06:03:55;;;;;;;;;;;20.60;99.90;;;;;;4975998;28;19910;-86
2022/05/22 06:06:20;;;;;;;;;;;20.50;99.90;;;;;;4977430;28;19911;-86
2022/05/22 06:08:46;;;;;;;;;;;20.60;99.90;;;;;;4959728;28;19910;-86
2022/05/22 06:11:12;;;;;;;;;;;20.80;99.90;;;;;;4977033;28;19911;-86
2022/05/22 06:13:39;;;;;;;;;;;20.90;99.90;;;;;;4976955;28;20267;-86
2022/05/22 06:16:05;;;;;;;;;;;21.00;99.90;;;;;;4959289;28;20337;-86
2022/05/22 06:18:31;;;;;;;;;;;21.10;99.90;;;;;;4976664;28;19922;-86
2022/05/22 06:20:57;;;;;;;;;;;21.10;99.90;;;;;;4976950;28;19949;-86
2022/05/22 06:23:22;;;;;;;;;;;21.20;99.90;;;;;;4977158;28;19914;-86
2022/05/22 06:25:48;;;;;;;;;;;21.30;99.90;;;;;;4976927;28;19957;-86
2022/05/22 06:28:14;;;;;;;;;;;21.30;99.90;;;;;;4976817;28;19917;-86
2022/05/22 06:30:40;;;;;;;;;;;21.30;99.90;;;;;;4976832;28;19957;-86
2022/05/22 06:33:12;;;;;;;;;;;21.30;99.90;;;;;;4976620;28;20371;-86
2022/05/22 06:35:39;;;;;;;;;;;21.40;99.90;;;;;;4976464;28;19910;-86
2022/05/22 06:38:05;;;;;;;;;;;21.50;99.90;;;;;;4976573;28;19917;-86
2022/05/22 06:40:31;;;;;;;;;;;21.40;99.90;;;;;;4976308;28;19922;-86
2022/05/22 06:42:59;;;;;;;;;;;21.50;99.90;;;;;;4976740;28;19953;-86
2022/05/22 06:45:25;;;;;;;;;;;21.60;99.90;;;;;;4959123;28;19917;-86
2022/05/22 06:47:51;;;;;;;;;;;21.80;99.90;;;;;;4975126;28;19910;-86
2022/05/22 06:50:18;;;;;;;;;;;21.90;99.90;;;;;;4976174;28;19917;-86
2022/05/22 06:52:44;;;;;;;;;;;22.00;99.90;;;;;;4958800;28;20293;-86
2022/05/22 06:55:10;;;;;;;;;;;22.20;99.50;;;;;;4976266;28;19910;-86
2022/05/22 06:57:35;;;;;;;;;;;22.20;99.30;;;;;;4958504;28;20017;-86
2022/05/22 07:00:04;;;;;;;;;;;22.20;99.90;;;;;;4976004;28;19918;-86
2022/05/22 07:02:29;;;;;;;;;;;22.10;99.90;;;;;;4976359;28;19911;-86
2022/05/22 07:04:56;;;;;;;;;;;22.20;99.90;;;;;;4976250;28;19973;-86
2022/05/22 07:07:21;;;;;;;;;;;22.30;99.90;;;;;;4976382;28;19910;-86
2022/05/22 07:09:48;;;;;;;;;;;22.40;99.90;;;;;;4976071;28;20412;-86
2022/05/22 07:12:14;;;;;;;;;;;22.50;99.90;;;;;;4975901;28;19917;-86
2022/05/22 07:14:39;;;;;;;;;;;22.50;99.80;;;;;;4974560;28;19910;-86
2022/05/22 07:17:06;;;;;;;;;;;22.60;99.90;;;;;;4975886;28;19910;-86
2022/05/22 07:19:34;;;;;;;;;;;22.70;99.90;;;;;;4975766;28;19918;-86
2022/05/22 07:22:01;;;;;;;;;;;22.80;99.50;;;;;;4976014;28;19964;-86
2022/05/22 07:24:27;;;;;;;;;;;22.90;99.50;;;;;;4975742;28;19910;-86
2022/05/22 07:26:52;;;;;;;;;;;23.10;99.90;;;;;;4975766;28;19943;-86
2022/05/22 07:29:18;;;;;;;;;;;23.40;99.40;;;;;;4975788;28;19910;-86
2022/05/22 07:31:44;;;;;;;;;;;23.50;99.30;;;;;;4975538;28;19910;-86
2022/05/22 07:34:09;;;;;;;;;;;23.50;99.20;;;;;;4975382;28;19958;-86
2022/05/22 07:36:35;;;;;;;;;;;23.40;99.00;;;;;;4975413;28;19953;-86
2022/05/22 07:39:00;;;;;;;;;;;23.40;99.40;;;;;;4975460;28;19983;-86
2022/05/22 07:41:26;;;;;;;;;;;23.50;99.50;;;;;;4975194;28;19944;-86
2022/05/22 07:43:51;;;;;;;;;;;23.60;99.70;;;;;;4974045;28;19914;-86
2022/05/22 07:46:17;;;;;;;;;;;23.80;99.40;;;;;;4975645;28;19910;-86
2022/05/22 07:48:43;;;;;;;;;;;24.00;99.20;;;;;;4957937;28;19983;-86
2022/05/22 07:51:09;;;;;;;;;;;24.10;98.90;;;;;;4975381;28;19910;-86
2022/05/22 07:53:34;;;;;;;;;;;24.30;99.00;;;;;;4975461;28;19910;-86
2022/05/22 07:56:01;;;;;;;;;;;24.40;98.80;;;;;;4975130;28;20005;-86
2022/05/22 07:58:28;;;;;;;;;;;24.40;98.40;;;;;;4975468;28;19922;-86
2022/05/22 08:00:54;;;;;;;;;;;24.50;98.40;;;;;;4974400;28;19910;-86
2022/05/22 08:03:20;;;;;;;;;;;24.70;98.60;;;;;;4975177;28;19910;-86
2022/05/22 08:05:45;;;;;;;;;;;24.80;98.30;;;;;;4975156;28;19910;-86
2022/05/22 08:08:11;;;;;;;;;;;24.80;98.30;;;;;;4975151;28;19910;-86
2022/05/22 08:10:37;;;;;;;;;;;24.80;98.30;;;;;;4975072;28;20001;-86
2022/05/22 08:13:04;;;;;;;;;;;24.80;98.50;;;;;;4974944;28;20008;-86
2022/05/22 08:15:30;;;;;;;;;;;24.80;98.40;;;;;;4975118;28;19981;-86
2022/05/22 08:17:56;;;;;;;;;;;24.80;98.50;;;;;;4974843;28;19957;-86
2022/05/22 08:20:22;;;;;;;;;;;24.90;98.70;;;;;;4973491;28;19926;-86
2022/05/22 08:22:52;;;;;;;;;;;25.00;98.80;;;;;;4974938;28;20287;-86
2022/05/22 08:25:18;;;;;;;;;;;25.10;98.70;;;;;;4975294;28;19957;-86
2022/05/22 08:27:44;;;;;;;;;;;25.30;98.80;;;;;;4974834;28;19952;-86
2022/05/22 08:30:11;;;;;;;;;;;25.40;98.60;;;;;;4975075;28;19949;-86
2022/05/22 08:32:37;;;;;;;;;;;25.40;98.50;;;;;;4975075;28;19945;-86
2022/05/22 08:35:03;;;;;;;;;;;25.60;98.50;;;;;;4974796;28;19910;-86
2022/05/22 08:37:29;;;;;;;;;;;25.60;98.30;;;;;;4975177;28;19914;-86
2022/05/22 08:39:54;;;;;;;;;;;25.70;98.50;;;;;;4974326;28;20363;-86
2022/05/22 08:42:23;;;;;;;;;;;25.80;98.30;;;;;;4973418;28;19910;-86
2022/05/22 08:44:51;;;;;;;;;;;25.70;98.00;;;;;;4974829;28;19917;-86
2022/05/22 08:47:34;;;;;;;;;;;25.70;98.30;;;;;;4974742;28;19949;-86
2022/05/22 08:50:06;;;;;;;;;;;25.70;98.20;;;;;;4973714;28;19949;-86
2022/05/22 08:52:54;;;;;;;;;;;25.60;98.30;;;;;;4974804;28;20417;-86
2022/05/22 08:55:22;;;;;;;;;;;25.50;98.40;;;;;;4957229;28;19910;-86
2022/05/22 09:00:49;;;;;;;;;;;25.30;98.70;;;;;;4974773;28;19965;-85
2022/05/22 09:03:20;;;;;;;;;;;25.30;98.80;;;;;;4973201;28;19933;-86
2022/05/22 09:05:47;;;;;;;;;;;25.40;98.80;;;;;;4957089;28;20400;-86
2022/05/22 09:08:18;;;;;;;;;;;25.40;98.80;;;;;;4974480;28;19917;-86
2022/05/22 09:11:03;;;;;;;;;;;25.50;98.80;;;;;;4974591;28;19914;-86
2022/05/22 09:13:44;;;;;;;;;;;25.60;99.00;;;;;;4978195;28;19965;-86
2022/05/22 09:16:12;;;;;;;;;;;25.80;99.00;;;;;;4978263;28;19917;-86
2022/05/22 09:18:45;;;;;;;;;;;25.90;98.80;;;;;;4977867;28;19965;-86
2022/05/22 09:21:17;;;;;;;;;;;26.10;98.80;;;;;;4977966;28;19952;-86
2022/05/22 09:23:53;;;;;;;;;;;26.20;98.40;;;;;;4977947;28;19942;-86
2022/05/22 09:26:24;;;;;;;;;;;26.40;98.30;;;;;;4977923;28;19956;-86
2022/05/22 09:29:11;;;;;;;;;;;26.50;98.50;;;;;;4977888;28;20432;-86
2022/05/22 09:31:51;;;;;;;;;;;26.60;98.10;;;;;;4977755;28;19910;-86
2022/05/22 09:34:17;;;;;;;;;;;26.80;98.00;;;;;;4976651;28;20378;-86
2022/05/22 09:36:43;;;;;;;;;;;26.90;97.80;;;;;;4977551;28;20004;-86
2022/05/22 09:39:14;;;;;;;;;;;26.90;97.80;;;;;;4977506;28;20346;-85
2022/05/22 09:41:40;;;;;;;;;;;27.10;97.90;;;;;;4977545;28;19921;-86
2022/05/22 09:44:17;;;;;;;;;;;27.40;98.10;;;;;;4977539;28;19910;-86
2022/05/22 09:46:43;;;;;;;;;;;27.80;97.30;;;;;;4977550;28;20282;-86
2022/05/22 09:49:12;;;;;;;;;;;28.20;97.00;;;;;;4977884;28;19916;-87
2022/05/22 09:51:47;;;;;;;;;;;28.50;96.70;;;;;;4977451;28;19910;-86
2022/05/22 09:54:18;;;;;;;;;;;28.60;96.20;;;;;;4977552;28;19914;-86
2022/05/22 09:56:47;;;;;;;;;;;28.60;96.60;;;;;;4975982;28;19964;-86
2022/05/22 09:59:31;;;;;;;;;;;28.50;96.80;;;;;;4977134;28;19922;-86
2022/05/22 10:01:59;;;;;;;;;;;28.50;96.60;;;;;;4977299;28;19937;-86
2022/05/22 10:04:36;;;;;;;;;;;28.60;96.60;;;;;;4977153;28;19910;-86
2022/05/22 10:07:02;;;;;;;;;;;28.70;96.70;;;;;;4977296;28;19911;-86
2022/05/22 10:09:46;;;;;;;;;;;28.90;96.70;;;;;;4977104;28;19910;-86
2022/05/22 10:12:23;;;;;;;;;;;28.90;96.40;;;;;;4976372;28;20466;-86
2022/05/22 10:14:48;;;;;;;;;;;29.10;96.50;;;;;;4977066;28;19993;-86
2022/05/22 10:17:34;;;;;;;;;;;29.20;96.30;;;;;;4976868;28;20386;-86
2022/05/22 10:20:12;;;;;;;;;;;29.30;96.20;;;;;;4976089;28;19972;-86
2022/05/22 10:22:56;;;;;;;;;;;29.20;96.00;;;;;;4976813;28;19917;-86
2022/05/22 10:25:30;;;;;;;;;;;29.20;96.20;;;;;;4976520;28;19933;-86
2022/05/22 10:28:01;;;;;;;;;;;29.20;96.20;;;;;;4976834;28;19969;-86
2022/05/22 10:30:40;;;;;;;;;;;29.30;96.40;;;;;;4976876;28;19924;-86
2022/05/22 10:33:19;;;;;;;;;;;29.40;96.00;;;;;;4991592;28;19917;-86
2022/05/22 10:36:05;;;;;;;;;;;29.50;96.00;;;;;;4975470;28;19910;-86
2022/05/22 10:38:37;;;;;;;;;;;29.70;96.00;;;;;;4965960;28;19941;-86
2022/05/22 10:44:20;;;;;;;;;;;30.20;95.70;;;;;;4951407;28;20377;-86
2022/05/22 10:46:53;;;;;;;;;;;30.50;94.90;;;;;;4959030;28;20273;-86
2022/05/22 10:49:20;;;;;;;;;;;30.60;94.80;;;;;;4976550;28;19949;-86
2022/05/22 10:51:58;;;;;;;;;;;30.50;94.60;;;;;;4976875;28;20370;-86
2022/05/22 10:54:29;;;;;;;;;;;30.40;94.80;;;;;;4959046;28;19910;-86
2022/05/22 10:56:54;;;;;;;;;;;30.40;95.10;;;;;;4958955;28;20013;-85
2022/05/22 10:59:22;;;;;;;;;;;30.60;94.60;;;;;;4976326;28;20017;-86
2022/05/22 11:01:57;;;;;;;;;;;30.80;94.80;;;;;;4976179;28;19914;-86
2022/05/22 11:04:33;;;;;;;;;;;31.00;94.70;;;;;;4976094;28;19964;-86
2022/05/22 11:06:59;;;;;;;;;;;31.10;94.50;;;;;;4976150;28;19914;-86
2022/05/22 11:09:26;;;;;;;;;;;31.20;94.40;;;;;;4976024;28;19910;-86
2022/05/22 11:12:08;;;;;;;;;;;31.10;94.70;;;;;;4976062;28;19917;-86
2022/05/22 11:14:35;;;;;;;;;;;31.20;94.50;;;;;;4975752;28;20405;-86
2022/05/22 11:17:07;;;;;;;;;;;31.30;94.20;;;;;;4976020;28;19993;-86
2022/05/22 11:19:35;;;;;;;;;;;31.20;94.40;;;;;;4975942;28;19924;-86
2022/05/22 11:22:11;;;;;;;;;;;31.20;94.30;;;;;;4975863;28;19918;-86
2022/05/22 11:24:55;;;;;;;;;;;31.20;94.60;;;;;;4975781;28;20382;-86
2022/05/22 11:27:21;;;;;;;;;;;31.30;94.60;;;;;;4975619;28;19917;-86
2022/05/22 11:29:59;;;;;;;;;;;31.40;94.00;;;;;;4974316;28;19914;-86
2022/05/22 11:32:30;;;;;;;;;;;31.50;94.30;;;;;;4974393;28;19932;-86
2022/05/22 11:35:06;;;;;;;;;;;31.60;93.90;;;;;;4975485;28;19910;-86
2022/05/22 11:37:43;;;;;;;;;;;31.60;93.90;;;;;;4958214;28;20392;-86
2022/05/22 11:40:09;;;;;;;;;;;31.70;93.90;;;;;;4975324;28;19922;-86
2022/05/22 11:42:36;;;;;;;;;;;31.90;93.80;;;;;;4975360;28;20334;-86
2022/05/22 11:45:20;;;;;;;;;;;32.00;93.70;;;;;;4975271;28;19917;-86
2022/05/22 11:48:04;;;;;;;;;;;32.30;93.50;;;;;;4975566;28;19910;-86
2022/05/22 11:50:35;;;;;;;;;;;32.40;93.40;;;;;;4974013;28;19910;-85
2022/05/22 11:53:01;;;;;;;;;;;32.60;93.30;;;;;;4975394;28;19918;-86
2022/05/22 11:55:29;;;;;;;;;;;32.60;93.00;;;;;;4975436;28;19915;-86
2022/05/22 11:58:14;;;;;;;;;;;32.80;93.10;;;;;;4973973;28;19910;-86
2022/05/22 12:00:40;;;;;;;;;;;33.00;92.80;;;;;;4973889;28;19918;-86
2022/05/22 12:03:11;;;;;;;;;;;33.10;92.50;;;;;;4975194;28;19933;-85
2022/05/22 12:05:52;;;;;;;;;;;33.20;92.50;;;;;;4975027;28;19917;-86
2022/05/22 12:08:24;;;;;;;;;;;33.30;92.30;;;;;;4974931;28;20001;-86
2022/05/22 12:11:07;;;;;;;;;;;33.30;91.30;;;;;;4975021;28;19968;-86
2022/05/22 12:13:42;;;;;;;;;;;33.20;92.20;;;;;;4975121;28;20390;-86
2022/05/22 12:16:13;;;;;;;;;;;33.60;92.00;;;;;;4973718;28;19910;-86
2022/05/22 12:19:11;;;;;;;;;;;33.70;91.00;;;;;;4975163;28;20281;-86
2022/05/22 12:21:51;;;;;;;;;;;33.80;91.60;;;;;;4942329;28;19957;-86
2022/05/22 12:24:20;;;;;;;;;;;34.10;91.30;;;;;;4973596;28;19917;-86
2022/05/22 12:26:47;;;;;;;;;;;34.50;90.60;;;;;;4974671;28;19917;-86
2022/05/22 12:29:25;;;;;;;;;;;33.50;91.10;;;;;;4974555;28;20366;-86
2022/05/22 12:31:57;;;;;;;;;;;33.00;91.30;;;;;;4975057;28;19997;-86
2022/05/22 12:34:44;;;;;;;;;;;32.60;91.40;;;;;;4975035;28;19910;-86
2022/05/22 12:37:14;;;;;;;;;;;32.10;91.80;;;;;;4974801;28;20421;-86
2022/05/22 12:39:43;;;;;;;;;;;31.60;92.30;;;;;;4974518;28;19957;-86
2022/05/22 12:42:15;;;;;;;;;;;31.30;92.70;;;;;;4974779;28;19910;-86
2022/05/22 12:44:40;;;;;;;;;;;31.10;92.80;;;;;;4974912;28;19965;-85
2022/05/22 12:47:15;;;;;;;;;;;31.00;93.00;;;;;;4976170;28;19910;-85
2022/05/22 12:49:51;;;;;;;;;;;30.60;93.50;;;;;;4978970;28;19917;-85
2022/05/22 12:52:31;;;;;;;;;;;30.60;93.70;;;;;;4978523;28;20337;-85
2022/05/22 12:54:56;;;;;;;;;;;30.40;94.00;;;;;;4978428;28;19910;-85
2022/05/22 12:57:22;;;;;;;;;;;30.50;94.00;;;;;;4978555;28;19964;-85
2022/05/22 12:59:52;;;;;;;;;;;30.60;94.20;;;;;;4978870;28;19918;-86
2022/05/22 13:02:27;;;;;;;;;;;30.60;94.10;;;;;;4978581;28;19911;-85
2022/05/22 13:04:55;;;;;;;;;;;30.70;94.10;;;;;;4978350;28;19910;-85
2022/05/22 13:07:31;;;;;;;;;;;30.90;94.10;;;;;;4961420;28;19911;-86
2022/05/22 13:09:57;;;;;;;;;;;30.70;94.30;;;;;;4959525;28;19917;-85
2022/05/22 13:12:31;;;;;;;;;;;30.90;94.00;;;;;;4978539;28;19910;-85
2022/05/22 13:14:56;;;;;;;;;;;31.20;94.00;;;;;;4960719;28;20001;-86
2022/05/22 13:17:33;;;;;;;;;;;31.40;93.80;;;;;;4978188;28;19949;-86
2022/05/22 13:20:02;;;;;;;;;;;31.80;93.70;;;;;;4978073;28;19960;-86
2022/05/22 13:22:35;;;;;;;;;;;32.30;93.10;;;;;;4978245;28;19914;-86
2022/05/22 13:25:03;;;;;;;;;;;33.00;92.30;;;;;;4977915;28;19910;-86
2022/05/22 13:27:28;;;;;;;;;;;33.70;91.90;;;;;;4977541;28;19910;-86
2022/05/22 13:29:59;;;;;;;;;;;33.40;91.80;;;;;;4977923;28;19910;-86
2022/05/22 13:32:48;;;;;;;;;;;33.00;92.00;;;;;;4977775;28;19910;-86
2022/05/22 13:35:18;;;;;;;;;;;32.80;92.30;;;;;;4969608;28;19914;-86
2022/05/22 13:37:48;;;;;;;;;;;32.80;92.40;;;;;;4978133;28;20259;-86
2022/05/22 13:40:20;;;;;;;;;;;32.70;92.40;;;;;;4977605;28;19945;-86
2022/05/22 13:43:07;;;;;;;;;;;32.40;92.50;;;;;;4977620;28;20001;-86
2022/05/22 13:45:45;;;;;;;;;;;32.10;92.90;;;;;;4977815;28;19910;-86
2022/05/22 13:48:11;;;;;;;;;;;31.60;93.50;;;;;;4978020;28;19980;-86
2022/05/22 13:53:20;;;;;;;;;;;31.60;93.30;;;;;;4977539;28;19917;-86
2022/05/22 13:55:47;;;;;;;;;;;32.20;93.20;;;;;;4977472;28;19914;-86
2022/05/22 13:58:21;;;;;;;;;;;33.20;92.20;;;;;;4958973;28;20448;-86
2022/05/22 14:00:48;;;;;;;;;;;33.80;91.80;;;;;;4977722;28;19918;-86
2022/05/22 14:03:35;;;;;;;;;;;34.00;91.20;;;;;;4977769;28;19910;-86
2022/05/22 14:06:02;;;;;;;;;;;33.00;91.80;;;;;;4977041;28;19910;-86
2022/05/22 14:08:34;;;;;;;;;;;32.80;92.10;;;;;;4959711;28;19911;-86
2022/05/22 14:11:01;;;;;;;;;;;33.10;91.80;;;;;;4977295;28;19989;-86
2022/05/22 14:13:27;;;;;;;;;;;34.50;91.20;;;;;;4959606;28;19910;-86
2022/05/22 14:15:53;;;;;;;;;;;35.20;90.20;;;;;;4977178;28;20004;-87
2022/05/22 14:18:20;;;;;;;;;;;35.50;90.00;;;;;;4977034;28;19910;-86
2022/05/22 14:20:48;;;;;;;;;;;34.90;90.30;;;;;;4977087;28;19918;-86
2022/05/22 14:23:18;;;;;;;;;;;35.40;90.20;;;;;;4977012;28;19914;-86
2022/05/22 14:25:44;;;;;;;;;;;35.80;89.70;;;;;;4977071;28;19918;-88
2022/05/22 14:28:11;;;;;;;;;;;36.10;88.20;;;;;;4976981;28;19910;-88
2022/05/22 14:30:39;;;;;;;;;;;36.50;88.10;;;;;;4976977;28;20274;-86
2022/05/22 14:33:10;;;;;;;;;;;36.60;87.60;;;;;;4976711;28;19917;-85
2022/05/22 14:35:40;;;;;;;;;;;36.60;87.70;;;;;;4976859;28;19910;-87
2022/05/22 14:38:09;;;;;;;;;;;37.20;87.10;;;;;;4976930;28;19910;-88
2022/05/22 14:40:40;;;;;;;;;;;37.30;86.00;;;;;;4976358;28;19922;-86
2022/05/22 14:43:06;;;;;;;;;;;37.80;85.20;;;;;;4975475;28;19950;-87